createdAt,value
2019-06-26T00:00:46.607Z,23.18
2019-06-26T00:05:49.702Z,23.27
2019-06-26T00:10:53.110Z,23.11
2019-06-26T00:15:56.240Z,23.07
2019-06-26T00:21:00.120Z,23.03
2019-06-26T00:26:03.344Z,22.76
2019-06-26T00:31:06.813Z,22.68
2019-06-26T00:36:10.241Z,22.68
2019-06-26T00:41:13.282Z,22.36
2019-06-26T00:46:16.911Z,22.33
2019-06-26T00:51:20.233Z,22.34
2019-06-26T00:56:23.286Z,22.06
2019-06-26T01:01:26.444Z,22.11
2019-06-26T01:06:44.538Z,22.14
2019-06-26T01:11:47.963Z,22.34
2019-06-26T01:16:50.910Z,22.22
2019-06-26T01:21:53.969Z,21.96
2019-06-26T01:26:57.517Z,21.83
2019-06-26T01:32:00.554Z,21.84
2019-06-26T01:37:04.176Z,21.82
2019-06-26T01:42:07.569Z,22.02
2019-06-26T01:47:11.001Z,22.11
2019-06-26T01:52:13.998Z,22.10
2019-06-26T01:57:17.259Z,22.03
2019-06-26T02:02:20.302Z,22.04
2019-06-26T02:07:23.346Z,22.05
2019-06-26T02:12:27.019Z,21.95
2019-06-26T02:17:30.319Z,21.86
2019-06-26T02:22:33.308Z,21.77
2019-06-26T02:27:42.121Z,21.76
2019-06-26T02:32:45.560Z,21.72
2019-06-26T02:37:48.657Z,21.59
2019-06-26T02:42:52.149Z,21.62
2019-06-26T02:47:55.532Z,21.65
2019-06-26T02:52:58.534Z,21.47
2019-06-26T02:58:01.966Z,21.31
2019-06-26T03:03:04.966Z,21.44
2019-06-26T03:08:08.047Z,21.43
2019-06-26T03:13:11.384Z,21.50
2019-06-26T03:18:14.532Z,21.55
2019-06-26T03:23:17.651Z,21.55
2019-06-26T03:28:20.726Z,21.54
2019-06-26T03:33:23.674Z,21.50
2019-06-26T03:38:26.748Z,21.55
2019-06-26T03:43:30.307Z,21.55
2019-06-26T03:48:33.496Z,21.69
2019-06-26T03:53:37.466Z,21.83
2019-06-26T03:58:40.483Z,21.95
2019-06-26T04:03:43.604Z,22.08
2019-06-26T04:08:46.663Z,22.25
2019-06-26T04:13:49.692Z,22.32
2019-06-26T04:18:52.886Z,22.47
2019-06-26T04:23:55.912Z,22.64
2019-06-26T04:28:59.193Z,22.79
2019-06-26T04:34:02.715Z,22.90
2019-06-26T04:39:07.835Z,23.06
2019-06-26T04:44:11.299Z,23.20
2019-06-26T04:49:14.315Z,23.35
2019-06-26T04:54:17.811Z,23.43
2019-06-26T04:59:21.391Z,23.67
2019-06-26T05:04:24.470Z,23.95
2019-06-26T05:09:27.733Z,24.11
2019-06-26T05:14:31.318Z,24.34
2019-06-26T05:19:34.388Z,24.48
2019-06-26T05:24:38.042Z,24.81
2019-06-26T05:29:41.188Z,25.04
2019-06-26T05:34:44.351Z,25.73
2019-06-26T05:39:47.421Z,25.85
2019-06-26T05:44:50.726Z,25.98
2019-06-26T05:49:54.215Z,25.96
2019-06-26T05:54:57.431Z,26.11
2019-06-26T06:00:00.937Z,26.34
2019-06-26T06:05:04.489Z,26.77
2019-06-26T06:10:08.482Z,26.68
2019-06-26T06:15:13.637Z,27.02
2019-06-26T06:20:27.937Z,27.12
2019-06-26T06:25:31.497Z,27.36
2019-06-26T06:30:34.584Z,27.88
2019-06-26T06:35:37.863Z,27.93
2019-06-26T06:40:41.217Z,27.95
2019-06-26T06:45:44.381Z,27.97
2019-06-26T06:50:47.693Z,27.85
2019-06-26T06:55:50.939Z,27.93
2019-06-26T07:00:54.270Z,28.03
2019-06-26T07:05:57.431Z,28.31
2019-06-26T07:11:00.773Z,28.32
2019-06-26T07:16:03.760Z,28.27
2019-06-26T07:21:06.841Z,28.29
2019-06-26T07:26:13.220Z,28.71
2019-06-26T07:31:15.072Z,28.69
2019-06-26T07:36:18.077Z,28.71
2019-06-26T07:41:21.197Z,28.84
2019-06-26T07:46:24.168Z,28.89
2019-06-26T07:51:27.305Z,29.02
2019-06-26T07:56:30.411Z,29.11
2019-06-26T08:01:33.577Z,29.26
2019-06-26T08:06:36.566Z,29.19
2019-06-26T08:11:39.816Z,29.35
2019-06-26T08:16:43.269Z,29.41
2019-06-26T08:21:46.920Z,29.46
2019-06-26T08:26:50.370Z,29.71
2019-06-26T08:31:53.929Z,30.13
2019-06-26T08:36:57.182Z,30.11
2019-06-26T08:42:00.261Z,30.36
2019-06-26T08:47:04.521Z,30.55
2019-06-26T08:52:07.687Z,30.71
2019-06-26T08:57:10.770Z,30.49
2019-06-26T09:02:13.941Z,30.67
2019-06-26T09:07:17.016Z,31.13
2019-06-26T09:12:20.166Z,31.08
2019-06-26T09:17:23.216Z,31.04
2019-06-26T09:22:26.758Z,31.29
2019-06-26T09:27:29.929Z,31.43
2019-06-26T09:32:33.032Z,31.47
2019-06-26T09:37:36.160Z,31.83
2019-06-26T09:42:39.674Z,31.44
2019-06-26T09:47:42.988Z,31.25
2019-06-26T09:52:46.114Z,31.65
2019-06-26T09:57:49.060Z,31.71
2019-06-26T10:02:52.030Z,32.44
2019-06-26T10:07:55.412Z,32.34
2019-06-26T10:12:58.684Z,32.42
2019-06-26T10:18:01.970Z,32.30
2019-06-26T10:23:05.216Z,32.22
2019-06-26T10:28:08.980Z,31.97
2019-06-26T10:33:12.076Z,32.23
2019-06-26T10:38:15.580Z,32.38
2019-06-26T10:43:18.937Z,32.06
2019-06-26T10:48:21.995Z,32.33
2019-06-26T10:53:25.649Z,32.19
2019-06-26T10:58:28.773Z,32.46
2019-06-26T11:03:31.961Z,32.44
2019-06-26T11:08:35.622Z,32.70
2019-06-26T11:13:38.669Z,33.00
2019-06-26T11:18:41.812Z,32.81
2019-06-26T11:23:44.876Z,32.60
2019-06-26T11:28:47.924Z,32.84
2019-06-26T11:33:51.089Z,32.65
2019-06-26T11:38:54.162Z,32.89
2019-06-26T11:43:57.553Z,32.93
2019-06-26T11:49:00.691Z,32.83
2019-06-26T11:54:04.086Z,32.76
2019-06-26T11:59:07.129Z,33.07
2019-06-26T12:04:10.075Z,33.24
2019-06-26T12:09:13.442Z,33.17
2019-06-26T12:14:16.527Z,33.05
2019-06-26T12:19:23.250Z,33.16
2019-06-26T12:24:26.541Z,33.40
2019-06-26T12:29:32.858Z,33.50
2019-06-26T12:34:35.460Z,33.13
2019-06-26T12:39:39.081Z,33.21
2019-06-26T12:44:42.186Z,33.61
2019-06-26T12:49:45.308Z,33.84
2019-06-26T12:54:48.265Z,33.74
2019-06-26T12:59:57.421Z,33.78
2019-06-26T13:04:57.263Z,33.76
2019-06-26T13:10:00.632Z,33.86
2019-06-26T13:15:05.204Z,33.78
2019-06-26T13:20:10.587Z,33.61
2019-06-26T13:25:15.937Z,33.51
2019-06-26T13:30:30.636Z,33.79
2019-06-26T13:35:33.945Z,33.84
2019-06-26T13:40:40.831Z,33.93
2019-06-26T13:45:42.947Z,33.89
2019-06-26T13:50:46.386Z,33.81
2019-06-26T13:55:50.091Z,33.74
2019-06-26T14:00:53.291Z,33.74
2019-06-26T14:05:56.565Z,34.05
2019-06-26T14:10:59.929Z,34.14
2019-06-26T14:16:03.095Z,33.88
2019-06-26T14:21:06.464Z,33.85
2019-06-26T14:26:09.533Z,34.10
2019-06-26T14:31:15.108Z,34.02
2019-06-26T14:36:18.402Z,34.06
2019-06-26T14:41:21.621Z,33.88
2019-06-26T14:46:25.108Z,33.84
2019-06-26T14:51:42.325Z,33.66
2019-06-26T14:56:33.835Z,33.92
2019-06-26T15:01:37.037Z,33.85
2019-06-26T15:06:40.566Z,33.58
2019-06-26T15:11:43.905Z,33.69
2019-06-26T15:16:47.444Z,33.70
2019-06-26T15:21:58.303Z,33.62
2019-06-26T15:26:55.576Z,33.49
2019-06-26T15:31:58.841Z,33.71
2019-06-26T15:37:02.240Z,33.70
2019-06-26T15:42:05.492Z,33.44
2019-06-26T15:47:08.810Z,33.47
2019-06-26T15:52:15.406Z,33.51
2019-06-26T15:57:16.599Z,33.59
2019-06-26T16:02:19.784Z,33.36
2019-06-26T16:07:23.183Z,33.27
2019-06-26T16:12:26.444Z,33.30
2019-06-26T16:17:39.931Z,33.22
2019-06-26T16:22:43.546Z,33.09
2019-06-26T16:27:47.113Z,33.11
2019-06-26T16:32:50.371Z,33.31
2019-06-26T16:37:53.381Z,33.28
2019-06-26T16:42:56.389Z,33.37
2019-06-26T16:47:59.974Z,33.10
2019-06-26T16:53:03.243Z,33.28
2019-06-26T16:58:06.387Z,33.15
2019-06-26T17:03:09.902Z,33.08
2019-06-26T17:08:13.111Z,33.06
2019-06-26T17:13:16.194Z,32.91
2019-06-26T17:18:19.866Z,32.80
2019-06-26T17:23:22.848Z,32.67
2019-06-26T17:28:26.442Z,32.57
2019-06-26T17:33:29.879Z,32.66
2019-06-26T17:38:34.196Z,32.59
2019-06-26T17:43:37.306Z,32.38
2019-06-26T17:48:40.464Z,32.32
2019-06-26T17:53:44.077Z,32.07
2019-06-26T17:58:47.116Z,32.01
2019-06-26T18:03:50.326Z,31.92
2019-06-26T18:08:53.549Z,31.66
2019-06-26T18:13:57.029Z,31.53
2019-06-26T18:19:00.291Z,31.50
2019-06-26T18:24:03.497Z,31.19
2019-06-26T18:29:06.627Z,31.12
2019-06-26T18:34:09.783Z,30.82
2019-06-26T18:39:13.159Z,30.65
2019-06-26T18:44:16.357Z,30.41
2019-06-26T18:49:19.459Z,30.23
2019-06-26T18:54:22.608Z,30.11
2019-06-26T18:59:25.698Z,30.05
2019-06-26T19:04:28.774Z,29.92
2019-06-26T19:09:31.878Z,29.81
2019-06-26T19:14:35.030Z,29.68
2019-06-26T19:19:38.253Z,29.41
2019-06-26T19:24:41.497Z,29.50
2019-06-26T19:29:44.936Z,29.44
2019-06-26T19:34:48.043Z,29.40
2019-06-26T19:39:51.130Z,29.28
2019-06-26T19:44:54.585Z,29.21
2019-06-26T19:49:57.699Z,29.04
2019-06-26T19:55:00.751Z,28.95
2019-06-26T20:00:05.215Z,28.91
2019-06-26T20:05:08.578Z,28.62
2019-06-26T20:10:14.069Z,28.58
2019-06-26T20:15:17.287Z,28.61
2019-06-26T20:20:20.375Z,28.50
2019-06-26T20:25:23.426Z,28.44
2019-06-26T20:30:31.754Z,28.41
2019-06-26T20:35:38.709Z,28.35
2019-06-26T20:40:45.491Z,28.28
2019-06-26T20:45:46.877Z,28.24
2019-06-26T20:50:50.381Z,28.13
2019-06-26T20:55:53.772Z,28.07
2019-06-26T21:00:56.820Z,27.99
2019-06-26T21:06:00.495Z,27.76
2019-06-26T21:11:03.764Z,27.71
2019-06-26T21:16:07.244Z,27.65
2019-06-26T21:21:10.402Z,27.53
2019-06-26T21:26:13.430Z,27.44
2019-06-26T21:31:16.597Z,27.44
2019-06-26T21:36:19.687Z,27.40
2019-06-26T21:41:22.943Z,27.33
2019-06-26T21:46:25.981Z,27.30
2019-06-26T21:51:29.066Z,27.26
2019-06-26T21:56:32.282Z,27.23
2019-06-26T22:01:35.674Z,27.19
2019-06-26T22:06:39.126Z,27.13
2019-06-26T22:11:42.213Z,27.15
2019-06-26T22:16:45.452Z,26.96
2019-06-26T22:21:48.462Z,26.97
2019-06-26T22:26:51.674Z,26.95
2019-06-26T22:31:55.202Z,26.93
2019-06-26T22:36:58.323Z,26.87
2019-06-26T22:42:01.296Z,26.77
2019-06-26T22:47:06.399Z,26.60
2019-06-26T22:52:09.577Z,26.61
2019-06-26T22:57:13.548Z,26.60
2019-06-26T23:02:16.774Z,26.35
2019-06-26T23:07:19.735Z,26.30
2019-06-26T23:12:22.721Z,26.25
2019-06-26T23:17:25.761Z,26.21
2019-06-26T23:22:28.928Z,26.15
2019-06-26T23:27:31.912Z,25.70
2019-06-26T23:32:34.939Z,25.42
2019-06-26T23:37:38.141Z,25.29
2019-06-26T23:42:41.338Z,25.51
2019-06-26T23:47:44.847Z,25.66
2019-06-26T23:52:47.886Z,25.69
2019-06-26T23:57:59.003Z,25.62
